Crickhowell, United Kingdom
Current Conditions -  °F | °C
As of 6:20 PM on Saturday 20 Dec 2014 (Local Time) from EGFF Reporting Station
Broken Clouds Broken Clouds  
Wind Chill: 41°   Ceiling: 3800
Heat Index: 46°   Visibility: 6mi
Dew Point: 41°   Wind: 12mph
Humidity: 81%   Direction: 290°WNW
Pressure: 30.45"   Gusts: NA
Location:  51.86°N, 3.14°W
Report Text: EGFF 201820Z AUTO 29010KT 9999 BKN038 08/05 Q1031
Loading
Personal Weather Stations






























Interactive Weather Map New forecast layout! Learn more

10-Day Weather Forecast

Advertisements
Track Severe Weather on mobile